createdAt,value
2022-09-24T00:01:28.127Z,9.87
2022-09-24T00:03:59.393Z,9.00
2022-09-24T00:06:27.791Z,8.03
2022-09-24T00:08:56.359Z,6.90
2022-09-24T00:11:28.612Z,7.60
2022-09-24T00:13:57.112Z,13.07
2022-09-24T00:16:25.665Z,6.17
2022-09-24T00:18:52.653Z,6.77
2022-09-24T00:21:22.076Z,7.43
2022-09-24T00:23:53.813Z,7.80
2022-09-24T00:26:39.979Z,7.33
2022-09-24T00:29:12.197Z,9.20
2022-09-24T00:31:39.060Z,9.30
2022-09-24T00:34:06.082Z,7.20
2022-09-24T00:36:32.767Z,7.10
2022-09-24T00:39:00.211Z,8.63
2022-09-24T00:41:29.758Z,6.87
2022-09-24T00:43:56.777Z,7.20
2022-09-24T00:46:40.536Z,8.50
2022-09-24T00:49:20.033Z,7.63
2022-09-24T00:51:51.938Z,6.03
2022-09-24T00:54:28.443Z,7.33
2022-09-24T00:56:59.743Z,7.03
2022-09-24T00:59:28.009Z,7.73
2022-09-24T01:01:57.490Z,7.90
2022-09-24T01:04:26.209Z,8.80
2022-09-24T01:06:53.283Z,8.20
2022-09-24T01:09:21.273Z,7.07
2022-09-24T01:12:14.473Z,11.90
2022-09-24T01:15:04.952Z,8.43
2022-09-24T01:18:01.469Z,9.33
2022-09-24T01:20:41.382Z,10.07
2022-09-24T01:23:08.413Z,7.60
2022-09-24T01:26:08.190Z,7.47
2022-09-24T01:28:59.473Z,7.63
2022-09-24T01:31:38.519Z,9.93
2022-09-24T01:34:06.419Z,9.90
2022-09-24T01:36:38.654Z,9.77
2022-09-24T01:39:08.008Z,9.03
2022-09-24T01:41:36.953Z,8.13
2022-09-24T01:44:06.879Z,8.33
2022-09-24T01:46:37.929Z,12.17
2022-09-24T01:49:07.405Z,10.13
2022-09-24T01:51:49.455Z,8.33
2022-09-24T01:54:33.511Z,8.23
2022-09-24T01:57:00.540Z,8.13
2022-09-24T01:59:44.893Z,9.63
2022-09-24T02:02:32.579Z,7.97
2022-09-24T02:05:06.563Z,9.83
2022-09-24T02:07:39.551Z,8.10
2022-09-24T02:10:14.191Z,9.37
2022-09-24T02:12:42.888Z,7.83
2022-09-24T02:15:28.853Z,9.80
2022-09-24T02:18:02.809Z,10.10
2022-09-24T02:20:30.997Z,9.60
2022-09-24T02:22:57.933Z,9.20
2022-09-24T02:25:34.731Z,8.53
2022-09-24T02:28:03.111Z,11.50
2022-09-24T02:30:37.746Z,11.80
2022-09-24T02:33:27.963Z,15.70
2022-09-24T02:35:54.656Z,9.20
2022-09-24T02:38:22.786Z,9.97
2022-09-24T02:40:50.586Z,11.57
2022-09-24T02:43:17.245Z,8.70
2022-09-24T02:45:43.865Z,7.90
2022-09-24T02:48:10.516Z,13.03
2022-09-24T02:50:37.116Z,9.30
2022-09-24T02:53:03.906Z,13.50
2022-09-24T02:55:30.594Z,10.07
2022-09-24T02:57:57.440Z,8.63
2022-09-24T03:00:24.137Z,9.87
2022-09-24T03:02:50.803Z,11.63
2022-09-24T03:05:18.195Z,7.90
2022-09-24T03:07:45.444Z,10.23
2022-09-24T03:10:13.001Z,11.93
2022-09-24T03:12:40.701Z,12.43
2022-09-24T03:15:07.518Z,12.00
2022-09-24T03:17:34.106Z,10.30
2022-09-24T03:20:00.889Z,8.97
2022-09-24T03:22:27.503Z,9.80
2022-09-24T03:24:54.169Z,9.00
2022-09-24T03:27:21.325Z,11.60
2022-09-24T03:30:06.571Z,8.50
2022-09-24T03:32:33.819Z,11.83
2022-09-24T03:35:01.243Z,9.43
2022-09-24T03:37:27.883Z,10.40
2022-09-24T03:39:54.475Z,9.83
2022-09-24T03:42:21.066Z,10.00
2022-09-24T03:44:47.676Z,10.93
2022-09-24T03:47:14.264Z,9.27
2022-09-24T03:49:40.853Z,9.90
2022-09-24T03:52:07.552Z,10.07
2022-09-24T03:54:34.143Z,9.87
2022-09-24T03:57:00.715Z,12.50
2022-09-24T03:59:27.310Z,9.50
2022-09-24T04:01:53.958Z,18.30
2022-09-24T04:04:20.580Z,12.00
2022-09-24T04:06:47.154Z,11.03
2022-09-24T04:09:13.741Z,14.20
2022-09-24T04:11:40.327Z,11.00
2022-09-24T04:14:07.050Z,10.37
2022-09-24T04:16:33.855Z,14.90
2022-09-24T04:19:01.882Z,12.90
2022-09-24T04:21:30.249Z,11.90
2022-09-24T04:23:56.860Z,10.43
2022-09-24T04:26:23.433Z,13.57
2022-09-24T04:28:50.385Z,13.40
2022-09-24T04:31:17.143Z,11.57
2022-09-24T04:33:43.782Z,10.13
2022-09-24T04:36:10.391Z,10.13
2022-09-24T04:38:37.063Z,10.83
2022-09-24T04:41:08.311Z,13.13
2022-09-24T04:43:36.816Z,10.30
2022-09-24T04:46:04.116Z,10.73
2022-09-24T04:48:31.822Z,9.50
2022-09-24T04:50:58.473Z,12.53
2022-09-24T04:53:25.164Z,11.77
2022-09-24T04:55:51.740Z,12.10
2022-09-24T04:58:19.090Z,11.07
2022-09-24T05:00:45.653Z,13.47
2022-09-24T05:03:12.393Z,11.30
2022-09-24T05:05:39.015Z,10.40
2022-09-24T05:08:05.627Z,15.80
2022-09-24T05:10:33.114Z,13.20
2022-09-24T05:13:00.007Z,13.27
2022-09-24T05:15:26.627Z,11.60
2022-09-24T05:17:53.207Z,11.23
2022-09-24T05:20:19.870Z,13.27
2022-09-24T05:22:49.319Z,11.10
2022-09-24T05:25:17.471Z,11.83
2022-09-24T05:27:49.117Z,10.50
2022-09-24T05:30:17.043Z,12.37
2022-09-24T05:32:43.764Z,10.80
2022-09-24T05:35:10.564Z,12.80
2022-09-24T05:37:38.199Z,10.40
2022-09-24T05:40:25.302Z,11.50
2022-09-24T05:42:52.197Z,11.87
2022-09-24T05:45:18.941Z,11.10
2022-09-24T05:47:46.661Z,11.67
2022-09-24T05:50:13.939Z,10.77
2022-09-24T05:52:41.329Z,13.77
2022-09-24T05:55:09.906Z,10.87
2022-09-24T05:57:36.879Z,11.40
2022-09-24T06:00:05.802Z,12.03
2022-09-24T06:02:38.880Z,12.47
2022-09-24T06:05:06.171Z,14.50
2022-09-24T06:07:32.879Z,12.57
2022-09-24T06:10:00.713Z,12.13
2022-09-24T06:12:27.523Z,10.97
2022-09-24T06:14:54.195Z,10.27
2022-09-24T06:17:21.716Z,13.37
2022-09-24T06:19:48.377Z,14.90
2022-09-24T06:22:14.960Z,13.07
2022-09-24T06:24:41.765Z,12.27
2022-09-24T06:27:08.711Z,14.70
2022-09-24T06:29:35.424Z,14.97
2022-09-24T06:32:02.236Z,11.60
2022-09-24T06:34:29.239Z,11.20
2022-09-24T06:36:56.943Z,10.77
2022-09-24T06:39:24.349Z,10.93
2022-09-24T06:41:51.449Z,10.03
2022-09-24T06:44:19.072Z,11.70
2022-09-24T06:46:45.702Z,12.23
2022-09-24T06:49:12.501Z,10.87
2022-09-24T06:51:39.767Z,9.17
2022-09-24T06:54:06.864Z,9.70
2022-09-24T06:56:33.468Z,12.50
2022-09-24T06:59:00.175Z,12.83
2022-09-24T07:01:26.776Z,17.10
2022-09-24T07:03:53.687Z,14.97
2022-09-24T07:06:20.295Z,14.43
2022-09-24T07:08:51.549Z,15.87
2022-09-24T07:11:18.161Z,15.53
2022-09-24T07:13:44.820Z,13.90
2022-09-24T07:16:11.715Z,15.80
2022-09-24T07:18:38.635Z,17.80
2022-09-24T07:21:05.397Z,13.00
2022-09-24T07:23:31.977Z,12.80
2022-09-24T07:25:58.604Z,13.90
2022-09-24T07:28:25.648Z,12.40
2022-09-24T07:30:59.518Z,12.23
2022-09-24T07:33:26.372Z,13.00
2022-09-24T07:35:53.004Z,13.60
2022-09-24T07:38:19.821Z,13.20
2022-09-24T07:40:46.453Z,13.43
2022-09-24T07:43:13.980Z,12.33
2022-09-24T07:45:42.102Z,14.77
2022-09-24T07:48:10.283Z,12.30
2022-09-24T07:50:40.324Z,13.73
2022-09-24T07:53:07.157Z,16.73
2022-09-24T07:55:39.217Z,12.70
2022-09-24T07:58:06.695Z,12.93
2022-09-24T08:00:33.285Z,14.43
2022-09-24T08:03:02.670Z,12.50
2022-09-24T08:05:29.543Z,11.30
2022-09-24T08:07:57.143Z,13.00
2022-09-24T08:10:25.012Z,11.77
2022-09-24T08:12:51.637Z,12.90
2022-09-24T08:15:19.210Z,11.97
2022-09-24T08:17:45.832Z,12.80
2022-09-24T08:20:12.483Z,11.43
2022-09-24T08:22:39.136Z,14.20
2022-09-24T08:25:06.083Z,17.17
2022-09-24T08:27:32.825Z,13.77
2022-09-24T08:30:00.482Z,15.40
2022-09-24T08:32:29.068Z,14.07
2022-09-24T08:34:55.696Z,12.50
2022-09-24T08:37:22.701Z,11.60
2022-09-24T08:39:49.291Z,11.43
2022-09-24T08:42:35.416Z,9.30
2022-09-24T08:45:23.008Z,11.27
2022-09-24T08:47:57.071Z,11.80
2022-09-24T08:50:33.812Z,13.30
2022-09-24T08:53:12.233Z,12.73
2022-09-24T08:55:43.810Z,12.00
2022-09-24T08:58:47.086Z,12.80
2022-09-24T09:01:29.029Z,12.47
2022-09-24T09:04:24.776Z,12.33
2022-09-24T09:07:26.162Z,18.17
2022-09-24T09:10:07.751Z,17.50
2022-09-24T09:12:46.950Z,19.07
2022-09-24T09:15:18.746Z,20.83
2022-09-24T09:18:02.052Z,16.47
2022-09-24T09:20:38.164Z,17.40
2022-09-24T09:23:16.678Z,22.00
2022-09-24T09:25:57.216Z,16.87
2022-09-24T09:28:26.824Z,16.67
2022-09-24T09:31:20.410Z,16.47
2022-09-24T09:34:29.587Z,17.70
2022-09-24T09:37:11.082Z,18.63
2022-09-24T09:39:50.705Z,16.43
2022-09-24T09:42:28.973Z,18.43
2022-09-24T09:44:55.862Z,15.67
2022-09-24T09:47:25.147Z,19.97
2022-09-24T09:49:55.670Z,17.33
2022-09-24T09:52:27.008Z,17.43
2022-09-24T09:54:53.653Z,20.23
2022-09-24T09:57:23.638Z,23.13
2022-09-24T09:59:52.946Z,20.77
2022-09-24T10:02:28.458Z,26.53
2022-09-24T10:04:58.318Z,21.40
2022-09-24T10:07:25.244Z,22.57
2022-09-24T10:10:23.537Z,23.57
2022-09-24T10:13:09.203Z,22.53
2022-09-24T10:15:49.250Z,21.80
2022-09-24T10:18:17.102Z,18.47
2022-09-24T10:20:48.110Z,23.77
2022-09-24T10:23:21.150Z,21.13
2022-09-24T10:25:57.905Z,23.50
2022-09-24T10:28:43.955Z,22.70
2022-09-24T10:31:25.386Z,21.30
2022-09-24T10:33:55.482Z,21.10
2022-09-24T10:36:25.724Z,20.43
2022-09-24T10:39:07.798Z,18.43
2022-09-24T10:41:35.750Z,19.60
2022-09-24T10:44:09.122Z,21.83
2022-09-24T10:47:13.336Z,24.67
2022-09-24T10:50:00.711Z,16.03
2022-09-24T10:52:41.849Z,18.23
2022-09-24T10:55:17.968Z,18.00
2022-09-24T10:58:15.173Z,20.70
2022-09-24T11:00:52.129Z,21.30
2022-09-24T11:03:53.673Z,19.80
2022-09-24T11:06:46.300Z,23.10
2022-09-24T11:09:24.612Z,23.53
2022-09-24T11:11:57.389Z,24.87
2022-09-24T11:14:44.961Z,23.60
2022-09-24T11:17:33.116Z,21.20
2022-09-24T11:20:20.982Z,21.80
2022-09-24T11:23:18.679Z,18.93
2022-09-24T11:25:54.528Z,20.57
2022-09-24T11:28:40.855Z,20.43
2022-09-24T11:31:14.697Z,21.67
2022-09-24T11:34:08.802Z,13.80
2022-09-24T11:37:00.518Z,22.80
2022-09-24T11:40:00.438Z,20.30
2022-09-24T11:42:43.992Z,18.00
2022-09-24T11:45:29.002Z,19.87
2022-09-24T11:48:28.003Z,21.10
2022-09-24T11:51:18.974Z,17.60
2022-09-24T11:53:55.083Z,19.57
2022-09-24T11:56:36.914Z,20.80
2022-09-24T11:59:27.240Z,18.53
2022-09-24T12:02:00.977Z,22.83
2022-09-24T12:04:54.719Z,22.80
2022-09-24T12:07:33.369Z,21.23
2022-09-24T12:10:24.856Z,17.63
2022-09-24T12:12:57.114Z,16.67
2022-09-24T12:15:29.277Z,18.90
2022-09-24T12:18:02.536Z,20.47
2022-09-24T12:20:31.189Z,21.03
2022-09-24T12:23:12.261Z,19.50
2022-09-24T12:25:44.983Z,22.13
2022-09-24T12:28:39.658Z,21.57
2022-09-24T12:31:41.120Z,17.10
2022-09-24T12:34:29.280Z,18.97
2022-09-24T12:37:16.276Z,19.83
2022-09-24T12:39:57.508Z,15.07
2022-09-24T12:42:28.045Z,16.70
2022-09-24T12:44:58.317Z,17.60
2022-09-24T12:47:27.759Z,20.73
2022-09-24T12:49:59.205Z,17.70
2022-09-24T12:52:36.405Z,16.40
2022-09-24T12:55:04.481Z,25.13
2022-09-24T12:57:35.909Z,27.00
2022-09-24T13:00:24.754Z,24.63
2022-09-24T13:02:52.673Z,18.60
2022-09-24T13:05:22.100Z,18.60
2022-09-24T13:08:17.509Z,19.23
2022-09-24T13:10:56.225Z,20.50
2022-09-24T13:13:26.733Z,20.50
2022-09-24T13:16:04.129Z,19.60
2022-09-24T13:18:34.457Z,17.93
2022-09-24T13:21:02.429Z,16.80
2022-09-24T13:23:38.596Z,17.10
2022-09-24T13:26:07.917Z,17.57
2022-09-24T13:28:52.271Z,19.80
2022-09-24T13:31:21.884Z,15.40
2022-09-24T13:33:56.984Z,19.03
2022-09-24T13:36:47.003Z,19.00
2022-09-24T13:39:28.715Z,16.03
2022-09-24T13:42:19.128Z,15.50
2022-09-24T13:44:50.119Z,17.80
2022-09-24T13:47:38.600Z,17.97
2022-09-24T13:50:24.116Z,13.70
2022-09-24T13:52:50.669Z,15.83
2022-09-24T13:55:24.234Z,13.53
2022-09-24T13:57:50.845Z,15.53
2022-09-24T14:00:21.120Z,13.20
2022-09-24T14:03:03.450Z,14.73
2022-09-24T14:05:35.477Z,13.47
2022-09-24T14:08:12.700Z,15.07
2022-09-24T14:10:40.090Z,13.60
2022-09-24T14:13:24.341Z,13.93
2022-09-24T14:15:53.833Z,12.27
2022-09-24T14:18:22.126Z,13.93
2022-09-24T14:21:04.144Z,10.47
2022-09-24T14:23:37.450Z,10.37
2022-09-24T14:26:04.811Z,10.73
2022-09-24T14:28:33.205Z,12.27
2022-09-24T14:31:01.639Z,11.80
2022-09-24T14:33:33.692Z,10.97
2022-09-24T14:36:02.305Z,9.63
2022-09-24T14:38:35.135Z,13.23
2022-09-24T14:41:04.575Z,13.73
2022-09-24T14:43:41.869Z,9.80
2022-09-24T14:46:22.759Z,10.50
2022-09-24T14:48:49.443Z,10.90
2022-09-24T14:51:28.348Z,14.23
2022-09-24T14:54:25.690Z,14.03
2022-09-24T14:56:52.491Z,11.87
2022-09-24T14:59:30.587Z,13.57
2022-09-24T15:02:26.050Z,12.50
2022-09-24T15:04:56.132Z,11.53
2022-09-24T15:07:25.367Z,18.37
2022-09-24T15:09:55.784Z,13.10
2022-09-24T15:12:34.047Z,13.57
2022-09-24T15:15:04.211Z,15.33
2022-09-24T15:17:35.943Z,11.63
2022-09-24T15:20:04.562Z,15.80
2022-09-24T15:22:31.522Z,13.40
2022-09-24T15:25:01.946Z,12.63
2022-09-24T15:27:34.347Z,12.03
2022-09-24T15:30:04.467Z,21.70
2022-09-24T15:32:33.630Z,13.43
2022-09-24T15:35:00.317Z,12.70
2022-09-24T15:37:29.469Z,14.00
2022-09-24T15:40:07.053Z,15.20
2022-09-24T15:42:33.771Z,14.50
2022-09-24T15:45:00.408Z,11.97
2022-09-24T15:47:27.412Z,16.47
2022-09-24T15:49:53.981Z,13.87
2022-09-24T15:52:28.456Z,13.70
2022-09-24T15:55:01.585Z,12.60
2022-09-24T15:57:28.288Z,15.60
2022-09-24T15:59:55.187Z,13.10
2022-09-24T16:02:28.783Z,12.40
2022-09-24T16:04:56.640Z,13.27
2022-09-24T16:07:25.977Z,12.43
2022-09-24T16:09:52.632Z,14.40
2022-09-24T16:12:20.389Z,12.87
2022-09-24T16:14:47.276Z,15.77
2022-09-24T16:17:13.850Z,13.87
2022-09-24T16:19:40.429Z,14.40
2022-09-24T16:22:07.058Z,14.10
2022-09-24T16:24:34.672Z,12.07
2022-09-24T16:27:02.195Z,14.47
2022-09-24T16:29:28.774Z,17.43
2022-09-24T16:31:55.708Z,15.50
2022-09-24T16:34:22.324Z,12.80
2022-09-24T16:36:49.025Z,13.63
2022-09-24T16:39:15.839Z,15.37
2022-09-24T16:41:42.539Z,13.00
2022-09-24T16:44:14.877Z,13.50
2022-09-24T16:46:42.406Z,13.83
2022-09-24T16:49:09.121Z,20.33
2022-09-24T16:51:35.992Z,15.27
2022-09-24T16:54:02.599Z,14.90
2022-09-24T16:56:29.203Z,16.60
2022-09-24T16:58:56.579Z,16.63
2022-09-24T17:01:23.782Z,15.77
2022-09-24T17:03:52.245Z,17.10
2022-09-24T17:06:22.270Z,15.57
2022-09-24T17:09:07.609Z,16.17
2022-09-24T17:11:35.126Z,18.63
2022-09-24T17:14:01.826Z,15.10
2022-09-24T17:16:29.401Z,17.90
2022-09-24T17:18:56.058Z,16.63
2022-09-24T17:21:23.416Z,24.70
2022-09-24T17:23:50.757Z,23.90
2022-09-24T17:26:21.202Z,18.30
2022-09-24T17:28:50.668Z,15.83
2022-09-24T17:31:21.212Z,19.03
2022-09-24T17:33:55.905Z,19.70
2022-09-24T17:36:23.372Z,20.17
2022-09-24T17:38:51.721Z,18.83
2022-09-24T17:41:19.471Z,17.83
2022-09-24T17:43:46.053Z,23.27
2022-09-24T17:46:15.721Z,21.00
2022-09-24T17:48:44.976Z,21.70
2022-09-24T17:51:14.012Z,21.23
2022-09-24T17:53:41.060Z,32.63
2022-09-24T17:56:09.962Z,19.27
2022-09-24T17:58:37.923Z,18.73
2022-09-24T18:01:27.855Z,19.77
2022-09-24T18:03:59.268Z,18.40
2022-09-24T18:06:32.513Z,19.63
2022-09-24T18:09:01.424Z,17.53
2022-09-24T18:11:31.071Z,20.33
2022-09-24T18:13:59.972Z,19.13
2022-09-24T18:16:29.475Z,20.20
2022-09-24T18:18:58.957Z,18.87
2022-09-24T18:21:25.662Z,18.07
2022-09-24T18:23:54.203Z,20.67
2022-09-24T18:26:23.353Z,19.83
2022-09-24T18:29:02.298Z,19.50
2022-09-24T18:31:30.132Z,23.70
2022-09-24T18:34:05.659Z,20.53
2022-09-24T18:36:35.268Z,19.83
2022-09-24T18:39:02.994Z,22.70
2022-09-24T18:41:31.268Z,25.27
2022-09-24T18:43:58.848Z,21.10
2022-09-24T18:46:28.637Z,22.97
2022-09-24T18:48:56.751Z,22.50
2022-09-24T18:51:29.567Z,23.10
2022-09-24T18:53:59.125Z,22.17
2022-09-24T18:56:26.707Z,26.80
2022-09-24T18:59:04.698Z,28.50
2022-09-24T19:01:34.230Z,24.03
2022-09-24T19:04:01.583Z,27.57
2022-09-24T19:06:29.375Z,24.53
2022-09-24T19:08:56.403Z,36.17
2022-09-24T19:11:23.271Z,28.23
2022-09-24T19:13:52.179Z,29.03
2022-09-24T19:16:23.378Z,33.50
2022-09-24T19:18:53.864Z,32.60
2022-09-24T19:21:22.887Z,30.57
2022-09-24T19:23:55.036Z,32.03
2022-09-24T19:26:27.426Z,33.27
2022-09-24T19:28:55.255Z,33.77
2022-09-24T19:31:24.601Z,33.13
2022-09-24T19:33:52.951Z,34.17
2022-09-24T19:36:22.114Z,36.73
2022-09-24T19:38:49.763Z,32.77
2022-09-24T19:41:24.831Z,35.00
2022-09-24T19:43:52.835Z,34.30
2022-09-24T19:46:22.140Z,33.50
2022-09-24T19:48:49.763Z,36.00
2022-09-24T19:51:18.326Z,36.20
2022-09-24T19:53:49.400Z,33.37
2022-09-24T19:56:16.342Z,34.37
2022-09-24T19:58:46.987Z,40.03
2022-09-24T20:01:17.278Z,39.20
2022-09-24T20:03:45.112Z,38.40
2022-09-24T20:06:15.000Z,44.10
2022-09-24T20:08:42.260Z,37.83
2022-09-24T20:11:11.325Z,36.37
2022-09-24T20:13:46.093Z,38.87
2022-09-24T20:16:15.580Z,40.60
2022-09-24T20:18:43.227Z,39.83
2022-09-24T20:21:12.572Z,44.77
2022-09-24T20:23:42.034Z,43.67
2022-09-24T20:26:29.390Z,44.47
2022-09-24T20:28:56.185Z,39.50
2022-09-24T20:31:23.561Z,39.10
2022-09-24T20:33:50.476Z,41.60
2022-09-24T20:36:21.866Z,45.10
2022-09-24T20:38:50.715Z,40.17
2022-09-24T20:41:20.031Z,43.40
2022-09-24T20:43:47.164Z,43.67
2022-09-24T20:46:24.267Z,39.90
2022-09-24T20:48:58.900Z,44.40
2022-09-24T20:51:30.277Z,43.17
2022-09-24T20:53:58.903Z,39.90
2022-09-24T20:56:26.970Z,44.30
2022-09-24T20:58:53.985Z,40.90
2022-09-24T21:01:21.847Z,42.60
2022-09-24T21:03:49.892Z,42.03
2022-09-24T21:06:17.858Z,44.83
2022-09-24T21:08:45.807Z,44.37
2022-09-24T21:11:18.326Z,47.90
2022-09-24T21:13:50.672Z,52.63
2022-09-24T21:16:20.675Z,48.70
2022-09-24T21:18:48.803Z,47.37
2022-09-24T21:21:16.811Z,48.77
2022-09-24T21:23:45.482Z,48.13
2022-09-24T21:26:19.678Z,45.47
2022-09-24T21:28:47.761Z,48.77
2022-09-24T21:31:20.931Z,44.63
2022-09-24T21:33:49.695Z,42.70
2022-09-24T21:36:19.241Z,43.20
2022-09-24T21:38:53.896Z,42.17
2022-09-24T21:41:39.220Z,43.07
2022-09-24T21:44:08.296Z,41.50
2022-09-24T21:46:35.587Z,41.57
2022-09-24T21:49:02.782Z,41.10
2022-09-24T21:51:30.161Z,38.93
2022-09-24T21:54:02.093Z,41.20
2022-09-24T21:56:33.544Z,38.40
2022-09-24T21:59:00.337Z,44.87
2022-09-24T22:01:33.631Z,40.57
2022-09-24T22:04:06.980Z,42.13
2022-09-24T22:06:33.616Z,40.23
2022-09-24T22:09:06.206Z,42.10
2022-09-24T22:11:34.370Z,44.50
2022-09-24T22:14:02.264Z,42.63
2022-09-24T22:16:31.140Z,40.97
2022-09-24T22:18:58.444Z,40.43
2022-09-24T22:21:25.275Z,42.67
2022-09-24T22:23:51.907Z,44.60
2022-09-24T22:26:18.654Z,41.53
2022-09-24T22:28:45.925Z,41.87
2022-09-24T22:31:15.357Z,43.30
2022-09-24T22:34:01.129Z,44.10
2022-09-24T22:36:30.005Z,45.57
2022-09-24T22:38:59.300Z,45.77
2022-09-24T22:41:30.629Z,43.70
2022-09-24T22:43:58.041Z,47.70
2022-09-24T22:46:27.429Z,47.60
2022-09-24T22:48:57.413Z,45.80
2022-09-24T22:51:26.329Z,56.53
2022-09-24T22:53:53.647Z,50.97
2022-09-24T22:56:23.473Z,57.20
2022-09-24T22:58:52.792Z,52.33
2022-09-24T23:01:23.063Z,53.63
2022-09-24T23:03:51.477Z,55.80
2022-09-24T23:06:18.951Z,52.37
2022-09-24T23:08:45.617Z,64.00
2022-09-24T23:11:14.896Z,56.93
2022-09-24T23:13:44.245Z,54.93
2022-09-24T23:16:13.989Z,58.87
2022-09-24T23:18:42.344Z,52.40
2022-09-24T23:21:11.571Z,53.83
2022-09-24T23:23:38.511Z,48.93
2022-09-24T23:26:17.217Z,51.80
2022-09-24T23:28:48.172Z,46.33
2022-09-24T23:31:14.895Z,42.33
2022-09-24T23:33:42.284Z,50.80
2022-09-24T23:36:11.266Z,42.57
2022-09-24T23:38:38.649Z,44.27
2022-09-24T23:41:06.559Z,49.47
2022-09-24T23:43:33.831Z,46.70
2022-09-24T23:46:01.145Z,49.37
2022-09-24T23:48:28.379Z,46.30
2022-09-24T23:50:55.287Z,48.90
2022-09-24T23:53:22.110Z,48.17
2022-09-24T23:55:49.697Z,50.87
2022-09-24T23:58:19.956Z,46.03
